sensor_id;sensor_type;location;lat;lon;timestamp;P1;durP1;ratioP1;P2;durP2;ratioP2
29026;SDS011;16120;48.608;9.092;2022-09-11T00:01:48;131.90;;;45.57;;
29026;SDS011;16120;48.608;9.092;2022-09-11T00:05:43;143.43;;;66.00;;
29026;SDS011;16120;48.608;9.092;2022-09-11T00:09:38;142.93;;;64.30;;
29026;SDS011;16120;48.608;9.092;2022-09-11T00:13:35;153.47;;;78.97;;
29026;SDS011;16120;48.608;9.092;2022-09-11T00:17:31;149.73;;;82.03;;
29026;SDS011;16120;48.608;9.092;2022-09-11T00:21:27;146.70;;;75.33;;
29026;SDS011;16120;48.608;9.092;2022-09-11T00:25:22;145.97;;;75.17;;
29026;SDS011;16120;48.608;9.092;2022-09-11T00:29:18;156.37;;;77.40;;
29026;SDS011;16120;48.608;9.092;2022-09-11T00:33:14;152.33;;;87.27;;
29026;SDS011;16120;48.608;9.092;2022-09-11T00:37:09;156.53;;;82.43;;
29026;SDS011;16120;48.608;9.092;2022-09-11T00:41:06;150.23;;;64.20;;
29026;SDS011;16120;48.608;9.092;2022-09-11T00:45:04;139.60;;;60.87;;
29026;SDS011;16120;48.608;9.092;2022-09-11T00:49:00;144.00;;;68.83;;
29026;SDS011;16120;48.608;9.092;2022-09-11T00:52:57;145.80;;;75.90;;
29026;SDS011;16120;48.608;9.092;2022-09-11T00:56:52;138.33;;;58.73;;
29026;SDS011;16120;48.608;9.092;2022-09-11T01:00:49;144.97;;;71.57;;
29026;SDS011;16120;48.608;9.092;2022-09-11T01:04:46;145.03;;;67.97;;
29026;SDS011;16120;48.608;9.092;2022-09-11T01:08:41;152.13;;;68.33;;
29026;SDS011;16120;48.608;9.092;2022-09-11T01:12:38;142.57;;;66.87;;
29026;SDS011;16120;48.608;9.092;2022-09-11T01:16:38;150.20;;;67.73;;
29026;SDS011;16120;48.608;9.092;2022-09-11T01:20:37;139.00;;;60.10;;
29026;SDS011;16120;48.608;9.092;2022-09-11T01:24:44;147.57;;;63.57;;
29026;SDS011;16120;48.608;9.092;2022-09-11T01:28:46;138.73;;;56.77;;
29026;SDS011;16120;48.608;9.092;2022-09-11T01:32:56;143.73;;;68.30;;
29026;SDS011;16120;48.608;9.092;2022-09-11T01:36:56;136.93;;;57.30;;
29026;SDS011;16120;48.608;9.092;2022-09-11T01:40:53;144.30;;;67.03;;
29026;SDS011;16120;48.608;9.092;2022-09-11T01:44:51;153.13;;;74.63;;
29026;SDS011;16120;48.608;9.092;2022-09-11T01:48:49;138.37;;;57.80;;
29026;SDS011;16120;48.608;9.092;2022-09-11T01:52:47;140.27;;;58.70;;
29026;SDS011;16120;48.608;9.092;2022-09-11T01:56:45;147.03;;;68.97;;
29026;SDS011;16120;48.608;9.092;2022-09-11T02:00:44;139.70;;;60.47;;
29026;SDS011;16120;48.608;9.092;2022-09-11T02:04:42;141.97;;;66.53;;
29026;SDS011;16120;48.608;9.092;2022-09-11T02:08:39;142.10;;;68.03;;
29026;SDS011;16120;48.608;9.092;2022-09-11T02:12:38;145.47;;;55.97;;
29026;SDS011;16120;48.608;9.092;2022-09-11T02:16:37;146.63;;;69.00;;
29026;SDS011;16120;48.608;9.092;2022-09-11T02:20:33;146.30;;;73.47;;
29026;SDS011;16120;48.608;9.092;2022-09-11T02:24:29;158.03;;;84.30;;
29026;SDS011;16120;48.608;9.092;2022-09-11T02:28:24;148.10;;;75.23;;
29026;SDS011;16120;48.608;9.092;2022-09-11T02:32:21;153.23;;;73.77;;
29026;SDS011;16120;48.608;9.092;2022-09-11T02:36:21;152.60;;;76.13;;
29026;SDS011;16120;48.608;9.092;2022-09-11T02:40:26;143.87;;;70.50;;
29026;SDS011;16120;48.608;9.092;2022-09-11T02:44:27;156.37;;;82.30;;
29026;SDS011;16120;48.608;9.092;2022-09-11T02:48:35;143.47;;;69.50;;
29026;SDS011;16120;48.608;9.092;2022-09-11T02:52:35;161.83;;;92.80;;
29026;SDS011;16120;48.608;9.092;2022-09-11T02:56:38;148.17;;;76.83;;
29026;SDS011;16120;48.608;9.092;2022-09-11T03:00:34;140.07;;;60.83;;
29026;SDS011;16120;48.608;9.092;2022-09-11T03:04:31;143.50;;;69.20;;
29026;SDS011;16120;48.608;9.092;2022-09-11T03:08:26;145.50;;;75.93;;
29026;SDS011;16120;48.608;9.092;2022-09-11T03:12:21;139.07;;;62.17;;
29026;SDS011;16120;48.608;9.092;2022-09-11T03:16:16;149.13;;;81.07;;
29026;SDS011;16120;48.608;9.092;2022-09-11T03:20:13;146.07;;;76.23;;
29026;SDS011;16120;48.608;9.092;2022-09-11T03:24:08;146.77;;;73.97;;
29026;SDS011;16120;48.608;9.092;2022-09-11T03:28:04;145.50;;;68.30;;
29026;SDS011;16120;48.608;9.092;2022-09-11T03:31:59;146.45;;;76.47;;
29026;SDS011;16120;48.608;9.092;2022-09-11T03:35:55;152.03;;;86.37;;
29026;SDS011;16120;48.608;9.092;2022-09-11T03:39:51;152.97;;;76.00;;
29026;SDS011;16120;48.608;9.092;2022-09-11T03:43:46;149.03;;;79.17;;
29026;SDS011;16120;48.608;9.092;2022-09-11T03:47:41;146.60;;;77.20;;
29026;SDS011;16120;48.608;9.092;2022-09-11T03:51:38;144.03;;;68.87;;
29026;SDS011;16120;48.608;9.092;2022-09-11T03:55:33;146.53;;;74.33;;
29026;SDS011;16120;48.608;9.092;2022-09-11T03:59:28;143.77;;;71.03;;
29026;SDS011;16120;48.608;9.092;2022-09-11T04:03:23;155.90;;;79.03;;
29026;SDS011;16120;48.608;9.092;2022-09-11T04:07:20;156.77;;;81.60;;
29026;SDS011;16120;48.608;9.092;2022-09-11T04:11:15;163.37;;;97.20;;
29026;SDS011;16120;48.608;9.092;2022-09-11T04:15:10;151.53;;;71.10;;
29026;SDS011;16120;48.608;9.092;2022-09-11T04:19:06;149.45;;;67.10;;
29026;SDS011;16120;48.608;9.092;2022-09-11T04:23:02;142.47;;;66.03;;
29026;SDS011;16120;48.608;9.092;2022-09-11T04:26:58;153.70;;;73.37;;
29026;SDS011;16120;48.608;9.092;2022-09-11T04:30:53;147.97;;;67.73;;
29026;SDS011;16120;48.608;9.092;2022-09-11T04:34:48;139.87;;;59.97;;
29026;SDS011;16120;48.608;9.092;2022-09-11T04:38:45;142.70;;;70.63;;
29026;SDS011;16120;48.608;9.092;2022-09-11T04:42:40;136.70;;;56.77;;
29026;SDS011;16120;48.608;9.092;2022-09-11T04:46:35;142.20;;;57.10;;
29026;SDS011;16120;48.608;9.092;2022-09-11T04:50:31;139.80;;;56.20;;
29026;SDS011;16120;48.608;9.092;2022-09-11T04:54:27;137.30;;;53.92;;
29026;SDS011;16120;48.608;9.092;2022-09-11T04:58:22;146.37;;;58.63;;
29026;SDS011;16120;48.608;9.092;2022-09-11T05:02:18;140.40;;;62.47;;
29026;SDS011;16120;48.608;9.092;2022-09-11T05:06:13;136.20;;;53.90;;
29026;SDS011;16120;48.608;9.092;2022-09-11T05:10:10;136.30;;;54.10;;
29026;SDS011;16120;48.608;9.092;2022-09-11T05:14:05;147.23;;;62.17;;
29026;SDS011;16120;48.608;9.092;2022-09-11T05:18:00;137.40;;;55.57;;
29026;SDS011;16120;48.608;9.092;2022-09-11T05:21:55;145.43;;;57.57;;
29026;SDS011;16120;48.608;9.092;2022-09-11T05:25:54;138.70;;;57.83;;
29026;SDS011;16120;48.608;9.092;2022-09-11T05:29:50;135.17;;;52.93;;
29026;SDS011;16120;48.608;9.092;2022-09-11T05:33:45;143.30;;;60.43;;
29026;SDS011;16120;48.608;9.092;2022-09-11T05:37:40;135.63;;;53.97;;
29026;SDS011;16120;48.608;9.092;2022-09-11T05:41:37;141.13;;;65.60;;
29026;SDS011;16120;48.608;9.092;2022-09-11T05:45:32;143.17;;;67.53;;
29026;SDS011;16120;48.608;9.092;2022-09-11T05:49:27;152.07;;;71.47;;
29026;SDS011;16120;48.608;9.092;2022-09-11T05:53:23;134.13;;;51.77;;
29026;SDS011;16120;48.608;9.092;2022-09-11T05:57:19;132.37;;;49.33;;
29026;SDS011;16120;48.608;9.092;2022-09-11T06:01:15;134.17;;;52.63;;
29026;SDS011;16120;48.608;9.092;2022-09-11T06:05:10;141.57;;;63.97;;
29026;SDS011;16120;48.608;9.092;2022-09-11T06:09:06;139.60;;;63.47;;
29026;SDS011;16120;48.608;9.092;2022-09-11T06:13:02;139.00;;;61.30;;
29026;SDS011;16120;48.608;9.092;2022-09-11T06:16:57;135.77;;;55.77;;
29026;SDS011;16120;48.608;9.092;2022-09-11T06:20:56;137.27;;;59.47;;
29026;SDS011;16120;48.608;9.092;2022-09-11T06:24:51;143.37;;;61.87;;
29026;SDS011;16120;48.608;9.092;2022-09-11T06:28:48;137.47;;;57.83;;
29026;SDS011;16120;48.608;9.092;2022-09-11T06:32:46;155.20;;;83.07;;
29026;SDS011;16120;48.608;9.092;2022-09-11T06:36:41;154.83;;;80.63;;
29026;SDS011;16120;48.608;9.092;2022-09-11T06:40:37;145.50;;;62.97;;
29026;SDS011;16120;48.608;9.092;2022-09-11T06:44:33;148.40;;;65.37;;
29026;SDS011;16120;48.608;9.092;2022-09-11T06:48:28;139.67;;;63.70;;
29026;SDS011;16120;48.608;9.092;2022-09-11T06:52:24;143.23;;;71.03;;
29026;SDS011;16120;48.608;9.092;2022-09-11T06:56:19;139.70;;;62.50;;
29026;SDS011;16120;48.608;9.092;2022-09-11T07:00:16;147.87;;;68.57;;
29026;SDS011;16120;48.608;9.092;2022-09-11T07:04:11;136.67;;;59.17;;
29026;SDS011;16120;48.608;9.092;2022-09-11T07:08:06;137.02;;;58.10;;
29026;SDS011;16120;48.608;9.092;2022-09-11T07:12:01;137.73;;;60.93;;
29026;SDS011;16120;48.608;9.092;2022-09-11T07:16:01;140.10;;;65.73;;
29026;SDS011;16120;48.608;9.092;2022-09-11T07:19:56;138.30;;;62.53;;
29026;SDS011;16120;48.608;9.092;2022-09-11T07:23:55;139.30;;;61.37;;
29026;SDS011;16120;48.608;9.092;2022-09-11T07:27:50;143.60;;;64.63;;
29026;SDS011;16120;48.608;9.092;2022-09-11T07:31:47;146.67;;;75.87;;
29026;SDS011;16120;48.608;9.092;2022-09-11T07:35:42;145.80;;;74.97;;
29026;SDS011;16120;48.608;9.092;2022-09-11T07:39:37;144.60;;;76.17;;
29026;SDS011;16120;48.608;9.092;2022-09-11T07:43:33;141.00;;;67.93;;
29026;SDS011;16120;48.608;9.092;2022-09-11T07:47:29;145.90;;;76.17;;
29026;SDS011;16120;48.608;9.092;2022-09-11T07:51:25;141.43;;;68.50;;
29026;SDS011;16120;48.608;9.092;2022-09-11T07:55:20;145.13;;;74.47;;
29026;SDS011;16120;48.608;9.092;2022-09-11T07:59:15;145.97;;;77.13;;
29026;SDS011;16120;48.608;9.092;2022-09-11T08:03:12;148.70;;;86.27;;
29026;SDS011;16120;48.608;9.092;2022-09-11T08:07:07;142.30;;;70.63;;
29026;SDS011;16120;48.608;9.092;2022-09-11T08:11:03;146.67;;;81.33;;
29026;SDS011;16120;48.608;9.092;2022-09-11T08:14:58;139.40;;;63.13;;
29026;SDS011;16120;48.608;9.092;2022-09-11T08:18:55;145.50;;;72.90;;
29026;SDS011;16120;48.608;9.092;2022-09-11T08:22:50;140.83;;;66.93;;
29026;SDS011;16120;48.608;9.092;2022-09-11T08:26:45;150.13;;;85.27;;
29026;SDS011;16120;48.608;9.092;2022-09-11T08:30:41;148.73;;;80.90;;
29026;SDS011;16120;48.608;9.092;2022-09-11T08:34:37;153.17;;;95.37;;
29026;SDS011;16120;48.608;9.092;2022-09-11T08:38:33;151.83;;;74.30;;
29026;SDS011;16120;48.608;9.092;2022-09-11T08:42:28;146.93;;;75.83;;
29026;SDS011;16120;48.608;9.092;2022-09-11T08:46:24;141.63;;;67.00;;
29026;SDS011;16120;48.608;9.092;2022-09-11T08:50:23;155.33;;;88.17;;
29026;SDS011;16120;48.608;9.092;2022-09-11T08:54:23;132.13;;;48.93;;
29026;SDS011;16120;48.608;9.092;2022-09-11T08:58:20;155.83;;;72.30;;
29026;SDS011;16120;48.608;9.092;2022-09-11T09:02:24;220.60;;;173.27;;
29026;SDS011;16120;48.608;9.092;2022-09-11T09:10:48;144.20;;;66.23;;
29026;SDS011;16120;48.608;9.092;2022-09-11T09:14:55;154.83;;;85.57;;
29026;SDS011;16120;48.608;9.092;2022-09-11T09:18:55;143.17;;;69.07;;
29026;SDS011;16120;48.608;9.092;2022-09-11T09:22:53;160.30;;;93.63;;
29026;SDS011;16120;48.608;9.092;2022-09-11T09:26:51;160.00;;;91.60;;
29026;SDS011;16120;48.608;9.092;2022-09-11T09:30:49;145.60;;;73.80;;
29026;SDS011;16120;48.608;9.092;2022-09-11T09:34:45;157.03;;;88.27;;
29026;SDS011;16120;48.608;9.092;2022-09-11T09:38:43;150.60;;;75.27;;
29026;SDS011;16120;48.608;9.092;2022-09-11T09:42:53;159.17;;;91.27;;
29026;SDS011;16120;48.608;9.092;2022-09-11T09:46:52;158.83;;;93.97;;
29026;SDS011;16120;48.608;9.092;2022-09-11T09:50:48;161.27;;;95.80;;
29026;SDS011;16120;48.608;9.092;2022-09-11T09:54:51;136.17;;;59.07;;
29026;SDS011;16120;48.608;9.092;2022-09-11T09:58:51;136.80;;;57.17;;
29026;SDS011;16120;48.608;9.092;2022-09-11T10:02:49;131.60;;;48.90;;
29026;SDS011;16120;48.608;9.092;2022-09-11T10:06:44;145.57;;;58.13;;
29026;SDS011;16120;48.608;9.092;2022-09-11T10:10:40;134.53;;;51.70;;
29026;SDS011;16120;48.608;9.092;2022-09-11T10:14:39;128.93;;;39.83;;
29026;SDS011;16120;48.608;9.092;2022-09-11T10:18:39;130.77;;;47.63;;
29026;SDS011;16120;48.608;9.092;2022-09-11T10:22:34;131.50;;;45.83;;
29026;SDS011;16120;48.608;9.092;2022-09-11T10:26:30;131.13;;;46.20;;
29026;SDS011;16120;48.608;9.092;2022-09-11T10:30:32;142.50;;;58.10;;
29026;SDS011;16120;48.608;9.092;2022-09-11T10:34:34;143.83;;;59.57;;
29026;SDS011;16120;48.608;9.092;2022-09-11T10:38:30;131.20;;;44.50;;
29026;SDS011;16120;48.608;9.092;2022-09-11T10:42:26;136.30;;;56.30;;
29026;SDS011;16120;48.608;9.092;2022-09-11T10:46:24;129.93;;;47.27;;
29026;SDS011;16120;48.608;9.092;2022-09-11T10:50:23;121.50;;;30.60;;
29026;SDS011;16120;48.608;9.092;2022-09-11T10:54:21;121.53;;;27.67;;
29026;SDS011;16120;48.608;9.092;2022-09-11T10:58:22;130.63;;;47.53;;
29026;SDS011;16120;48.608;9.092;2022-09-11T11:02:24;120.90;;;30.10;;
29026;SDS011;16120;48.608;9.092;2022-09-11T11:06:25;124.63;;;39.93;;
29026;SDS011;16120;48.608;9.092;2022-09-11T11:10:31;127.73;;;38.23;;
29026;SDS011;16120;48.608;9.092;2022-09-11T11:14:40;129.47;;;44.57;;
29026;SDS011;16120;48.608;9.092;2022-09-11T11:18:44;137.20;;;43.83;;
29026;SDS011;16120;48.608;9.092;2022-09-11T11:22:49;122.87;;;35.90;;
29026;SDS011;16120;48.608;9.092;2022-09-11T11:26:48;144.23;;;67.23;;
29026;SDS011;16120;48.608;9.092;2022-09-11T11:30:47;137.70;;;48.50;;
29026;SDS011;16120;48.608;9.092;2022-09-11T11:34:53;147.13;;;61.37;;
29026;SDS011;16120;48.608;9.092;2022-09-11T11:38:51;126.70;;;39.63;;
29026;SDS011;16120;48.608;9.092;2022-09-11T11:42:48;127.10;;;37.30;;
29026;SDS011;16120;48.608;9.092;2022-09-11T11:46:45;128.07;;;38.17;;
29026;SDS011;16120;48.608;9.092;2022-09-11T11:50:43;125.23;;;32.53;;
29026;SDS011;16120;48.608;9.092;2022-09-11T11:54:40;121.90;;;26.90;;
29026;SDS011;16120;48.608;9.092;2022-09-11T11:58:40;121.43;;;34.50;;
29026;SDS011;16120;48.608;9.092;2022-09-11T12:02:40;121.00;;;32.23;;
29026;SDS011;16120;48.608;9.092;2022-09-11T12:06:38;121.50;;;33.30;;
29026;SDS011;16120;48.608;9.092;2022-09-11T12:10:34;120.60;;;32.80;;
29026;SDS011;16120;48.608;9.092;2022-09-11T12:14:30;127.17;;;44.80;;
29026;SDS011;16120;48.608;9.092;2022-09-11T12:18:26;123.27;;;36.87;;
29026;SDS011;16120;48.608;9.092;2022-09-11T12:22:33;126.87;;;34.63;;
29026;SDS011;16120;48.608;9.092;2022-09-11T12:26:28;122.17;;;35.37;;
29026;SDS011;16120;48.608;9.092;2022-09-11T12:30:25;121.00;;;33.60;;
29026;SDS011;16120;48.608;9.092;2022-09-11T12:34:21;120.20;;;27.87;;
29026;SDS011;16120;48.608;9.092;2022-09-11T12:38:21;121.03;;;31.00;;
29026;SDS011;16120;48.608;9.092;2022-09-11T12:50:47;152.40;;;85.40;;
29026;SDS011;16120;48.608;9.092;2022-09-11T12:54:44;143.97;;;84.83;;
29026;SDS011;16120;48.608;9.092;2022-09-11T12:58:39;130.67;;;56.17;;
29026;SDS011;16120;48.608;9.092;2022-09-11T13:02:35;127.73;;;46.77;;
29026;SDS011;16120;48.608;9.092;2022-09-11T13:06:35;125.10;;;35.90;;
29026;SDS011;16120;48.608;9.092;2022-09-11T13:10:33;126.83;;;44.53;;
29026;SDS011;16120;48.608;9.092;2022-09-11T13:14:49;124.90;;;37.67;;
29026;SDS011;16120;48.608;9.092;2022-09-11T13:18:44;123.50;;;36.47;;
29026;SDS011;16120;48.608;9.092;2022-09-11T13:22:39;123.90;;;37.67;;
29026;SDS011;16120;48.608;9.092;2022-09-11T13:26:36;133.57;;;45.17;;
29026;SDS011;16120;48.608;9.092;2022-09-11T13:30:31;125.57;;;40.80;;
29026;SDS011;16120;48.608;9.092;2022-09-11T13:34:28;191.17;;;136.77;;
29026;SDS011;16120;48.608;9.092;2022-09-11T13:38:24;127.30;;;37.63;;
29026;SDS011;16120;48.608;9.092;2022-09-11T13:42:21;117.80;;;27.63;;
29026;SDS011;16120;48.608;9.092;2022-09-11T13:46:18;118.57;;;28.63;;
29026;SDS011;16120;48.608;9.092;2022-09-11T13:50:14;119.40;;;31.03;;
29026;SDS011;16120;48.608;9.092;2022-09-11T13:54:11;119.60;;;26.20;;
29026;SDS011;16120;48.608;9.092;2022-09-11T13:58:20;120.70;;;31.63;;
29026;SDS011;16120;48.608;9.092;2022-09-11T14:02:24;119.27;;;28.10;;
29026;SDS011;16120;48.608;9.092;2022-09-11T14:06:22;124.43;;;38.87;;
29026;SDS011;16120;48.608;9.092;2022-09-11T14:10:20;127.73;;;45.47;;
29026;SDS011;16120;48.608;9.092;2022-09-11T14:14:20;122.60;;;38.63;;
29026;SDS011;16120;48.608;9.092;2022-09-11T14:18:22;164.13;;;87.67;;
29026;SDS011;16120;48.608;9.092;2022-09-11T14:22:21;123.73;;;33.43;;
29026;SDS011;16120;48.608;9.092;2022-09-11T14:26:17;120.43;;;32.70;;
29026;SDS011;16120;48.608;9.092;2022-09-11T14:30:28;122.17;;;37.10;;
29026;SDS011;16120;48.608;9.092;2022-09-11T14:34:24;119.47;;;26.13;;
29026;SDS011;16120;48.608;9.092;2022-09-11T14:38:20;1999.90;;;999.90;;
29026;SDS011;16120;48.608;9.092;2022-09-11T14:42:17;1999.90;;;999.90;;
29026;SDS011;16120;48.608;9.092;2022-09-11T14:46:15;1999.90;;;999.90;;
29026;SDS011;16120;48.608;9.092;2022-09-11T14:50:11;1999.90;;;999.90;;
29026;SDS011;16120;48.608;9.092;2022-09-11T14:54:07;1999.90;;;999.90;;
29026;SDS011;16120;48.608;9.092;2022-09-11T14:58:06;1999.90;;;999.90;;
29026;SDS011;16120;48.608;9.092;2022-09-11T15:02:03;1999.90;;;999.90;;
29026;SDS011;16120;48.608;9.092;2022-09-11T15:05:59;1999.90;;;999.90;;
29026;SDS011;16120;48.608;9.092;2022-09-11T15:09:54;1999.90;;;999.90;;
29026;SDS011;16120;48.608;9.092;2022-09-11T15:13:49;1999.90;;;999.90;;
29026;SDS011;16120;48.608;9.092;2022-09-11T15:17:46;1999.90;;;999.90;;
29026;SDS011;16120;48.608;9.092;2022-09-11T15:21:41;1999.90;;;999.90;;
29026;SDS011;16120;48.608;9.092;2022-09-11T15:25:36;1999.90;;;999.90;;
29026;SDS011;16120;48.608;9.092;2022-09-11T15:29:32;1999.90;;;999.90;;
29026;SDS011;16120;48.608;9.092;2022-09-11T15:33:29;1999.90;;;999.90;;
29026;SDS011;16120;48.608;9.092;2022-09-11T15:37:24;1999.90;;;999.90;;
29026;SDS011;16120;48.608;9.092;2022-09-11T15:41:20;1999.90;;;999.90;;
29026;SDS011;16120;48.608;9.092;2022-09-11T15:45:15;1999.90;;;999.90;;
29026;SDS011;16120;48.608;9.092;2022-09-11T15:49:12;1999.90;;;999.90;;
29026;SDS011;16120;48.608;9.092;2022-09-11T15:53:07;1999.90;;;999.90;;
29026;SDS011;16120;48.608;9.092;2022-09-11T15:57:02;1999.90;;;999.90;;
29026;SDS011;16120;48.608;9.092;2022-09-11T16:00:57;1999.90;;;999.90;;
29026;SDS011;16120;48.608;9.092;2022-09-11T16:04:54;1999.90;;;999.90;;
29026;SDS011;16120;48.608;9.092;2022-09-11T16:08:49;1999.90;;;999.90;;
29026;SDS011;16120;48.608;9.092;2022-09-11T16:12:45;1999.90;;;999.90;;
29026;SDS011;16120;48.608;9.092;2022-09-11T16:16:40;1999.90;;;999.90;;
29026;SDS011;16120;48.608;9.092;2022-09-11T16:20:37;1999.90;;;999.90;;
29026;SDS011;16120;48.608;9.092;2022-09-11T16:24:33;1999.90;;;999.90;;
29026;SDS011;16120;48.608;9.092;2022-09-11T16:28:28;1999.90;;;999.90;;
29026;SDS011;16120;48.608;9.092;2022-09-11T16:32:24;1999.90;;;999.90;;
29026;SDS011;16120;48.608;9.092;2022-09-11T16:36:20;1999.90;;;999.90;;
29026;SDS011;16120;48.608;9.092;2022-09-11T16:40:15;1999.90;;;999.90;;
29026;SDS011;16120;48.608;9.092;2022-09-11T16:44:11;1999.90;;;999.90;;
29026;SDS011;16120;48.608;9.092;2022-09-11T16:48:07;1999.90;;;999.90;;
29026;SDS011;16120;48.608;9.092;2022-09-11T16:52:03;1999.90;;;999.90;;
29026;SDS011;16120;48.608;9.092;2022-09-11T16:55:59;1999.90;;;999.90;;
29026;SDS011;16120;48.608;9.092;2022-09-11T16:59:57;1999.90;;;999.90;;
29026;SDS011;16120;48.608;9.092;2022-09-11T17:03:52;1999.90;;;999.90;;
29026;SDS011;16120;48.608;9.092;2022-09-11T17:07:49;1999.90;;;999.90;;
29026;SDS011;16120;48.608;9.092;2022-09-11T17:11:44;1999.90;;;999.90;;
29026;SDS011;16120;48.608;9.092;2022-09-11T17:15:40;1999.90;;;999.90;;
29026;SDS011;16120;48.608;9.092;2022-09-11T17:19:35;1999.90;;;999.90;;
29026;SDS011;16120;48.608;9.092;2022-09-11T17:23:32;1999.90;;;999.90;;
29026;SDS011;16120;48.608;9.092;2022-09-11T17:27:27;1999.90;;;999.90;;
29026;SDS011;16120;48.608;9.092;2022-09-11T17:31:22;1999.90;;;999.90;;
29026;SDS011;16120;48.608;9.092;2022-09-11T17:35:18;1999.90;;;999.90;;
29026;SDS011;16120;48.608;9.092;2022-09-11T17:39:14;1999.90;;;999.90;;
29026;SDS011;16120;48.608;9.092;2022-09-11T17:43:10;1999.90;;;999.90;;
29026;SDS011;16120;48.608;9.092;2022-09-11T17:47:05;1999.90;;;999.90;;
29026;SDS011;16120;48.608;9.092;2022-09-11T17:51:01;1999.90;;;999.90;;
29026;SDS011;16120;48.608;9.092;2022-09-11T17:54:58;1999.90;;;999.90;;
29026;SDS011;16120;48.608;9.092;2022-09-11T17:58:53;1999.90;;;999.90;;
29026;SDS011;16120;48.608;9.092;2022-09-11T18:02:49;1999.90;;;999.90;;
29026;SDS011;16120;48.608;9.092;2022-09-11T18:06:44;1999.90;;;999.90;;
29026;SDS011;16120;48.608;9.092;2022-09-11T18:10:47;1999.90;;;999.90;;
29026;SDS011;16120;48.608;9.092;2022-09-11T18:14:42;1999.90;;;999.90;;
29026;SDS011;16120;48.608;9.092;2022-09-11T18:18:38;1999.90;;;999.90;;
29026;SDS011;16120;48.608;9.092;2022-09-11T18:22:34;1999.90;;;999.90;;
29026;SDS011;16120;48.608;9.092;2022-09-11T18:26:31;1999.90;;;999.90;;
29026;SDS011;16120;48.608;9.092;2022-09-11T18:30:27;1999.90;;;999.90;;
29026;SDS011;16120;48.608;9.092;2022-09-11T18:34:23;1999.90;;;999.90;;
29026;SDS011;16120;48.608;9.092;2022-09-11T18:38:19;1999.90;;;999.90;;
29026;SDS011;16120;48.608;9.092;2022-09-11T18:42:15;1999.90;;;999.90;;
29026;SDS011;16120;48.608;9.092;2022-09-11T18:46:10;1999.90;;;999.90;;
29026;SDS011;16120;48.608;9.092;2022-09-11T18:50:06;1999.90;;;999.90;;
29026;SDS011;16120;48.608;9.092;2022-09-11T18:54:01;1999.90;;;999.90;;
29026;SDS011;16120;48.608;9.092;2022-09-11T18:57:58;1999.90;;;999.90;;
29026;SDS011;16120;48.608;9.092;2022-09-11T19:01:53;1999.90;;;999.90;;
29026;SDS011;16120;48.608;9.092;2022-09-11T19:05:48;1999.90;;;999.90;;
29026;SDS011;16120;48.608;9.092;2022-09-11T19:09:43;1999.90;;;999.90;;
29026;SDS011;16120;48.608;9.092;2022-09-11T19:13:40;1999.90;;;999.90;;
29026;SDS011;16120;48.608;9.092;2022-09-11T19:17:36;1999.90;;;999.90;;
29026;SDS011;16120;48.608;9.092;2022-09-11T19:21:31;1999.90;;;999.90;;
29026;SDS011;16120;48.608;9.092;2022-09-11T19:25:26;1999.90;;;999.90;;
29026;SDS011;16120;48.608;9.092;2022-09-11T19:29:23;1999.90;;;999.90;;
29026;SDS011;16120;48.608;9.092;2022-09-11T19:33:18;1999.90;;;999.90;;
29026;SDS011;16120;48.608;9.092;2022-09-11T19:37:13;1999.90;;;999.90;;
29026;SDS011;16120;48.608;9.092;2022-09-11T19:41:09;1999.90;;;999.90;;
29026;SDS011;16120;48.608;9.092;2022-09-11T19:45:07;1999.90;;;999.90;;
29026;SDS011;16120;48.608;9.092;2022-09-11T19:49:02;1999.90;;;999.90;;
29026;SDS011;16120;48.608;9.092;2022-09-11T19:52:58;1999.90;;;999.90;;
29026;SDS011;16120;48.608;9.092;2022-09-11T19:56:53;1999.90;;;999.90;;
29026;SDS011;16120;48.608;9.092;2022-09-11T20:00:49;1999.90;;;999.90;;
29026;SDS011;16120;48.608;9.092;2022-09-11T20:04:45;1999.90;;;999.90;;
29026;SDS011;16120;48.608;9.092;2022-09-11T20:08:40;1999.90;;;999.90;;
29026;SDS011;16120;48.608;9.092;2022-09-11T20:12:36;1999.90;;;999.90;;
29026;SDS011;16120;48.608;9.092;2022-09-11T20:16:32;1999.90;;;999.90;;
29026;SDS011;16120;48.608;9.092;2022-09-11T20:20:28;1999.90;;;999.90;;
29026;SDS011;16120;48.608;9.092;2022-09-11T20:24:23;1999.90;;;999.90;;
29026;SDS011;16120;48.608;9.092;2022-09-11T20:28:18;1999.90;;;999.90;;
29026;SDS011;16120;48.608;9.092;2022-09-11T20:32:15;1999.90;;;999.90;;
29026;SDS011;16120;48.608;9.092;2022-09-11T20:36:10;1999.90;;;999.90;;
29026;SDS011;16120;48.608;9.092;2022-09-11T20:40:06;1999.90;;;999.90;;
29026;SDS011;16120;48.608;9.092;2022-09-11T20:44:01;1999.90;;;999.90;;
29026;SDS011;16120;48.608;9.092;2022-09-11T20:47:58;1999.90;;;999.90;;
29026;SDS011;16120;48.608;9.092;2022-09-11T20:51:54;1999.90;;;999.90;;
29026;SDS011;16120;48.608;9.092;2022-09-11T20:55:49;1999.90;;;999.90;;
29026;SDS011;16120;48.608;9.092;2022-09-11T20:59:44;1999.90;;;999.90;;
29026;SDS011;16120;48.608;9.092;2022-09-11T21:03:44;1999.90;;;999.90;;
29026;SDS011;16120;48.608;9.092;2022-09-11T21:07:39;1999.90;;;999.90;;
29026;SDS011;16120;48.608;9.092;2022-09-11T21:11:35;1999.90;;;999.90;;
29026;SDS011;16120;48.608;9.092;2022-09-11T21:15:31;1999.90;;;999.90;;
29026;SDS011;16120;48.608;9.092;2022-09-11T21:19:27;1999.90;;;999.90;;
29026;SDS011;16120;48.608;9.092;2022-09-11T21:23:23;1999.90;;;999.90;;
29026;SDS011;16120;48.608;9.092;2022-09-11T21:27:18;1999.90;;;999.90;;
29026;SDS011;16120;48.608;9.092;2022-09-11T21:31:13;1999.90;;;999.90;;
29026;SDS011;16120;48.608;9.092;2022-09-11T21:35:10;1999.90;;;999.90;;
29026;SDS011;16120;48.608;9.092;2022-09-11T21:39:05;1999.90;;;999.90;;
29026;SDS011;16120;48.608;9.092;2022-09-11T21:43:00;1999.90;;;999.90;;
29026;SDS011;16120;48.608;9.092;2022-09-11T21:46:55;1999.90;;;999.90;;
29026;SDS011;16120;48.608;9.092;2022-09-11T21:50:52;1999.90;;;999.90;;
29026;SDS011;16120;48.608;9.092;2022-09-11T21:54:47;1999.90;;;999.90;;
29026;SDS011;16120;48.608;9.092;2022-09-11T21:58:42;1999.90;;;999.90;;
29026;SDS011;16120;48.608;9.092;2022-09-11T22:02:37;1999.90;;;999.90;;
29026;SDS011;16120;48.608;9.092;2022-09-11T22:06:34;1999.90;;;999.90;;
29026;SDS011;16120;48.608;9.092;2022-09-11T22:10:29;1999.90;;;999.90;;
29026;SDS011;16120;48.608;9.092;2022-09-11T22:14:24;1999.90;;;999.90;;
29026;SDS011;16120;48.608;9.092;2022-09-11T22:18:20;1999.90;;;999.90;;
29026;SDS011;16120;48.608;9.092;2022-09-11T22:22:16;1999.90;;;999.90;;
29026;SDS011;16120;48.608;9.092;2022-09-11T22:26:12;1999.90;;;999.90;;
29026;SDS011;16120;48.608;9.092;2022-09-11T22:30:08;1999.90;;;999.90;;
29026;SDS011;16120;48.608;9.092;2022-09-11T22:34:03;1999.90;;;999.90;;
29026;SDS011;16120;48.608;9.092;2022-09-11T22:38:00;1999.90;;;999.90;;
29026;SDS011;16120;48.608;9.092;2022-09-11T22:41:55;1999.90;;;999.90;;